Time;durP1;ratioP1;P1;durP2;ratioP2;P2;SDS_P1;SDS_P2;PMS_P1;PMS_P2;Temp;Humidity;BMP_temperature;BMP_pressure;BME280_temperature;BME280_humidity;BME280_pressure;Samples;Min_cycle;Max_cycle;Signal;HPM_P1;HPM_P2
2020/12/21 00:00:09;;;;;;;;;;;;;;;0.96;100.00;94124.13;6155517;23;20029;-89
2020/12/21 00:02:36;;;;;;;14.05;7.35;;;;;;;0.87;100.00;94096.13;6155899;23;19916;-89
2020/12/21 00:05:08;;;;;;;10.18;5.43;;;;;;;0.90;100.00;94095.06;6156884;23;20447;-89
2020/12/21 00:07:35;;;;;;;7.25;4.45;;;;;;;1.08;100.00;94129.88;6156099;23;20053;-89
2020/12/21 00:10:01;;;;;;;10.77;6.05;;;;;;;1.09;100.00;94127.22;6156020;23;20036;-89
2020/12/21 00:12:29;;;;;;;14.93;5.78;;;;;;;1.03;100.00;94123.47;6155516;23;20018;-89
2020/12/21 00:15:06;;;;;;;10.10;5.03;;;;;;;1.17;100.00;94124.84;6157534;23;20056;-89
2020/12/21 00:17:34;;;;;;;9.00;4.28;;;;;;;1.20;100.00;94129.66;6158234;23;20068;-89
2020/12/21 00:20:00;;;;;;;11.07;6.13;;;;;;;1.19;100.00;94117.94;6157722;23;20017;-89
2020/12/21 00:22:32;;;;;;;;;;;;;;;1.17;100.00;94131.66;6143982;23;20080;-89
2020/12/21 00:24:58;;;;;;;12.95;6.85;;;;;;;1.04;100.00;94126.81;6157881;23;19924;-89
2020/12/21 00:27:35;;;;;;;;;;;;;;;1.10;100.00;94138.16;6158618;23;20025;-90
2020/12/21 00:30:03;;;;;;;12.18;4.40;;;;;;;1.24;100.00;94139.53;6158529;23;19920;-89
2020/12/21 00:32:29;;;;;;;11.63;4.90;;;;;;;1.22;100.00;94137.13;6157930;23;20458;-89
2020/12/21 00:35:10;;;;;;;;;;;;;;;1.19;100.00;94143.25;6158424;23;20025;-89
2020/12/21 00:37:36;;;;;;;10.85;3.75;;;;;;;1.14;100.00;94142.84;6157883;23;19959;-89
2020/12/21 00:40:03;;;;;;;14.27;6.28;;;;;;;1.19;100.00;94145.78;6157566;23;20022;-90
2020/12/21 00:42:29;;;;;;;8.00;4.32;;;;;;;1.16;100.00;94142.72;6158340;23;20018;-89
2020/12/21 00:44:55;;;;;;;;;;;;;;;1.21;100.00;94143.13;6159534;23;20017;-89
2020/12/21 00:47:23;;;;;;;9.10;4.80;;;;;;;1.15;100.00;94146.19;6158544;23;20229;-89
2020/12/21 00:49:49;;;;;;;14.95;6.05;;;;;;;0.92;100.00;94118.50;6157820;23;20072;-89
2020/12/21 00:52:15;;;;;;;7.35;4.22;;;;;;;1.10;100.00;94145.75;6157149;23;20460;-89
2020/12/21 00:54:58;;;;;;;7.05;4.10;;;;;;;1.09;100.00;94151.72;6159250;23;20040;-89
2020/12/21 00:57:24;;;;;;;12.70;5.03;;;;;;;1.15;100.00;94151.25;6157575;23;20044;-89
2020/12/21 00:59:53;;;;;;;9.23;4.75;;;;;;;1.19;100.00;94137.38;6158734;23;20330;-89
2020/12/21 01:02:20;;;;;;;8.70;5.03;;;;;;;1.30;100.00;94144.88;6159071;23;20320;-89
2020/12/21 01:04:47;;;;;;;;;;;;;;;1.29;100.00;94147.56;6158703;23;20018;-89
2020/12/21 01:07:13;;;;;;;13.32;4.05;;;;;;;1.29;100.00;94139.97;6157758;23;19920;-88
2020/12/21 01:09:39;;;;;;;;;;;;;;;1.28;100.00;94149.28;6158970;23;20025;-89
2020/12/21 01:12:05;;;;;;;12.75;4.03;;;;;;;1.27;100.00;94150.19;6157748;23;20337;-89
2020/12/21 01:14:31;;;;;;;;;;;;;;;1.26;100.00;94150.31;6158022;23;20024;-90
2020/12/21 01:16:57;;;;;;;10.27;5.68;;;;;;;1.26;100.00;94143.53;6157672;23;19923;-89
2020/12/21 01:19:23;;;;;;;;;;;;;;;1.30;100.00;94146.63;6158040;23;20022;-89
2020/12/21 01:21:51;;;;;;;6.72;4.60;;;;;;;1.26;100.00;94145.25;6157510;23;20326;-89
2020/12/21 01:24:17;;;;;;;12.23;5.20;;;;;;;1.28;100.00;94131.56;6137926;23;20030;-89
2020/12/21 01:26:43;;;;;;;;;;;;;;;1.40;100.00;94141.56;6158321;23;20025;-89
2020/12/21 01:29:19;;;;;;;7.95;4.35;;;;;;;1.37;100.00;94139.28;6157830;23;19923;-89
2020/12/21 01:31:46;;;;;;;9.77;6.97;;;;;;;1.26;100.00;94125.81;6157445;23;20075;-89
2020/12/21 01:34:13;;;;;;;10.57;5.35;;;;;;;1.45;100.00;94139.44;6157493;23;20021;-90
2020/12/21 01:36:40;;;;;;;8.93;4.28;;;;;;;1.45;100.00;94140.22;6157748;23;20080;-89
2020/12/21 01:39:07;;;;;;;8.05;3.97;;;;;;;1.46;100.00;94141.03;6158588;23;20021;-90
2020/12/21 01:41:33;;;;;;;8.25;3.88;;;;;;;1.46;100.00;94146.91;6157351;23;20446;-89
2020/12/21 01:44:04;;;;;;;10.43;5.18;;;;;;;1.44;100.00;94142.91;6158655;23;20024;-89
2020/12/21 01:46:30;;;;;;;8.30;5.05;;;;;;;1.49;100.00;94147.59;6158167;23;20018;-89
2020/12/21 01:48:57;;;;;;;9.15;4.65;;;;;;;1.50;100.00;94149.19;6157342;23;20028;-90
2020/12/21 01:51:25;;;;;;;9.63;4.32;;;;;;;1.39;100.00;94145.03;6157219;23;20021;-89
2020/12/21 01:53:53;;;;;;;7.57;3.47;;;;;;;1.41;100.00;94151.56;6159019;23;20017;-88
2020/12/21 01:56:41;;;;;;;10.73;4.20;;;;;;;1.32;100.00;94147.28;6157203;23;20021;-89
2020/12/21 01:59:07;;;;;;;7.88;3.53;;;;;;;1.27;100.00;94145.13;6157113;23;20101;-89
2020/12/21 02:01:33;;;;;;;;;;;;;;;1.19;100.00;94139.91;6157894;23;20017;-90
2020/12/21 02:03:59;;;;;;;9.73;4.95;;;;;;;1.24;100.00;94134.47;6158468;23;19916;-89
2020/12/21 02:06:26;;;;;;;;;;;;;;;1.37;100.00;94134.22;6158787;23;20017;-89
2020/12/21 02:08:52;;;;;;;4.43;3.80;;;;;;;1.33;100.00;94136.22;6157432;23;19923;-89
2020/12/21 02:11:18;;;;;;;12.73;3.55;;;;;;;1.43;100.00;94133.72;6156948;23;20017;-89
2020/12/21 02:13:46;;;;;;;12.88;5.18;;;;;;;1.41;100.00;94128.78;6156877;23;20033;-89
2020/12/21 02:16:15;;;;;;;6.88;3.70;;;;;;;1.41;100.00;94118.66;6157451;23;20025;-89
2020/12/21 02:18:41;;;;;;;6.05;3.30;;;;;;;1.44;100.00;94110.78;6158160;23;20024;-89
2020/12/21 02:21:08;;;;;;;5.60;3.78;;;;;;;1.36;100.00;94128.38;6156806;23;20022;-89
2020/12/21 02:23:35;;;;;;;8.68;4.07;;;;;;;1.25;100.00;94129.25;6158452;23;20022;-89
2020/12/21 02:26:01;;;;;;;;;;;;;;;1.26;100.00;94125.81;6157927;23;20096;-89
2020/12/21 02:28:27;;;;;;;10.40;4.93;;;;;;;1.26;100.00;94128.34;6157020;23;19923;-89
2020/12/21 02:30:53;;;;;;;;;;;;;;;1.17;100.00;94124.06;6157730;23;20021;-89
2020/12/21 02:33:20;;;;;;;12.88;4.43;;;;;;;1.12;100.00;94121.94;6158360;23;19916;-89
2020/12/21 02:35:46;;;;;;;7.20;4.68;;;;;;;1.10;100.00;94123.75;6156615;23;20454;-90
2020/12/21 02:38:13;;;;;;;10.38;4.95;;;;;;;1.20;100.00;94128.84;6156671;23;20481;-89
2020/12/21 02:40:41;;;;;;;10.75;4.70;;;;;;;1.15;100.00;94123.41;6157760;23;20022;-89
2020/12/21 02:43:07;;;;;;;7.97;4.18;;;;;;;1.16;100.00;94120.72;6157230;23;20017;-90
2020/12/21 02:45:34;;;;;;;12.55;5.72;;;;;;;1.18;100.00;94111.28;6156758;23;20049;-89
2020/12/21 02:48:00;;;;;;;13.38;5.32;;;;;;;1.35;100.00;94121.72;6156472;23;20024;-90
2020/12/21 02:50:38;;;;;;;;;;;;;;;1.36;100.00;94122.50;6157636;23;20025;-89
2020/12/21 02:53:04;;;;;;;12.25;5.88;;;;;;;1.21;100.00;94122.88;6157000;23;19928;-90
2020/12/21 02:55:32;;;;;;;9.98;5.20;;;;;;;1.24;100.00;94126.88;6157006;23;20029;-89
2020/12/21 02:57:58;;;;;;;11.93;5.25;;;;;;;1.27;100.00;94124.06;6156768;23;20039;-90
2020/12/21 03:00:24;;;;;;;13.73;6.05;;;;;;;1.27;100.00;94129.94;6156976;23;20025;-90
2020/12/21 03:02:51;;;;;;;11.85;4.97;;;;;;;1.35;100.00;94136.09;6156623;23;20028;-90
2020/12/21 03:05:17;;;;;;;10.27;4.28;;;;;;;1.28;100.00;94139.13;6155442;23;20068;-90
2020/12/21 03:07:44;;;;;;;6.97;4.10;;;;;;;1.35;100.00;94126.78;6155584;23;20017;-90
2020/12/21 03:10:10;;;;;;;7.53;3.63;;;;;;;1.42;100.00;94137.16;6157672;23;20087;-90
2020/12/21 03:12:38;;;;;;;7.40;3.63;;;;;;;1.29;100.00;94138.22;6156444;23;20017;-90
2020/12/21 03:15:04;;;;;;;9.75;4.72;;;;;;;1.33;100.00;94136.22;6157789;23;20017;-89
2020/12/21 03:17:31;;;;;;;7.38;3.92;;;;;;;1.45;100.00;94132.63;6156264;23;20018;-89
2020/12/21 03:19:57;;;;;;;8.82;5.18;;;;;;;1.52;100.00;94139.75;6156095;23;20033;-89
2020/12/21 03:22:23;;;;;;;11.15;4.85;;;;;;;1.53;100.00;94128.66;6156332;23;20022;-90
2020/12/21 03:24:50;;;;;;;;;;;;;;;1.50;100.00;94141.59;6156507;23;20022;-89
2020/12/21 03:27:16;;;;;;;8.27;3.92;;;;;;;1.54;100.00;94122.66;6157444;23;20237;-90
2020/12/21 03:29:44;;;;;;;9.25;4.45;;;;;;;1.63;100.00;94128.69;6156290;23;20022;-89
2020/12/21 03:32:10;;;;;;;12.10;4.22;;;;;;;1.48;100.00;94093.59;6156266;23;20374;-89
2020/12/21 03:34:37;;;;;;;10.30;3.88;;;;;;;1.57;100.00;94115.59;6156293;23;20473;-89
2020/12/21 03:37:03;;;;;;;7.15;3.75;;;;;;;1.62;100.00;94125.34;6156656;23;20021;-89
2020/12/21 03:39:29;;;;;;;;;;;;;;;1.67;100.00;94120.66;6158195;23;20018;-89
2020/12/21 03:41:56;;;;;;;10.63;5.47;;;;;;;1.65;100.00;94107.34;6156726;23;19917;-90
2020/12/21 03:44:22;;;;;;;7.65;4.00;;;;;;;1.68;100.00;94108.81;6156158;23;20022;-89
2020/12/21 03:46:50;;;;;;;9.07;4.03;;;;;;;1.58;100.00;94119.72;6156566;23;20017;-89
2020/12/21 03:49:16;;;;;;;6.43;2.83;;;;;;;1.55;100.00;94109.88;6155588;23;20026;-90
2020/12/21 03:51:42;;;;;;;9.98;3.88;;;;;;;1.53;100.00;94123.59;6156381;23;20028;-89
2020/12/21 03:54:09;;;;;;;6.47;3.22;;;;;;;1.51;100.00;94122.91;6156150;23;20021;-89
2020/12/21 03:57:10;;;;;;;8.40;4.38;;;;;;;1.58;100.00;94117.19;6157507;23;20022;-89
2020/12/21 03:59:37;;;;;;;6.97;3.97;;;;;;;1.48;100.00;94100.41;6157053;23;20022;-90
2020/12/21 04:02:04;;;;;;;8.32;4.05;;;;;;;1.48;100.00;94095.34;6156521;23;20017;-90
2020/12/21 04:04:31;;;;;;;9.13;4.60;;;;;;;1.65;100.00;94124.28;6157090;23;20072;-90
2020/12/21 04:06:57;;;;;;;5.65;4.45;;;;;;;1.72;100.00;94120.28;6156427;23;20023;-89
2020/12/21 04:09:24;;;;;;;11.82;5.00;;;;;;;1.73;100.00;94120.13;6156034;23;20025;-89
2020/12/21 04:11:50;;;;;;;6.35;3.85;;;;;;;1.75;100.00;94117.47;6155953;23;20053;-90
2020/12/21 04:14:16;;;;;;;;;;;;;;;1.82;100.00;94105.09;6156610;23;20049;-88
2020/12/21 04:16:43;;;;;;;9.00;5.40;;;;;;;1.54;100.00;94100.69;6155640;23;19962;-90
2020/12/21 04:19:10;;;;;;;8.70;5.00;;;;;;;1.70;100.00;94114.53;6156261;23;20084;-90
2020/12/21 04:21:36;;;;;;;11.93;4.53;;;;;;;1.71;100.00;94108.56;6156278;23;20017;-89
2020/12/21 04:24:03;;;;;;;15.70;6.03;;;;;;;1.68;100.00;94112.16;6157078;23;20018;-89
2020/12/21 04:26:29;;;;;;;11.57;4.57;;;;;;;1.67;100.00;94115.59;6156603;23;20017;-89
2020/12/21 04:28:55;;;;;;;12.20;4.95;;;;;;;1.56;100.00;94116.53;6155964;23;20021;-90
2020/12/21 04:31:22;;;;;;;10.32;4.40;;;;;;;1.32;100.00;94122.78;6155604;23;20458;-89
2020/12/21 04:34:32;;;;;;;6.75;4.00;;;;;;;1.28;100.00;94123.16;6155982;23;20342;-90
2020/12/21 04:37:53;;;;;;;16.50;6.65;;;;;;;1.32;100.00;94125.31;6157484;23;20024;-89
2020/12/21 04:40:20;;;;;;;12.95;5.18;;;;;;;1.38;100.00;94129.03;6155957;23;20018;-90
2020/12/21 04:42:48;;;;;;;8.45;3.85;;;;;;;1.45;100.00;94117.44;6155923;23;20068;-89
2020/12/21 04:45:15;;;;;;;9.23;4.55;;;;;;;1.58;100.00;94116.41;6155978;23;20021;-89
2020/12/21 04:47:43;;;;;;;13.85;6.45;;;;;;;1.59;100.00;94121.34;6156929;23;20018;-89
2020/12/21 04:50:11;;;;;;;13.55;6.05;;;;;;;1.64;100.00;94105.75;6155917;23;20026;-88
2020/12/21 04:56:28;;;;;;;9.57;6.38;;;;;;;1.63;100.00;94113.47;6095219;23;20356;-89
2020/12/21 05:02:15;;;;;;;12.15;4.47;;;;;;;1.50;100.00;94117.06;6096769;23;20419;-90
2020/12/21 05:07:41;;;;;;;10.55;6.28;;;;;;;1.48;100.00;94138.38;6096541;23;19923;-89
2020/12/21 05:10:08;;;;;;;7.80;4.53;;;;;;;1.49;100.00;94140.78;6096452;23;20022;-89
2020/12/21 05:12:36;;;;;;;7.68;3.83;;;;;;;1.41;100.00;94143.16;6096466;23;20019;-89
2020/12/21 05:18:31;;;;;;;11.57;5.28;;;;;;;1.35;100.00;94131.03;6010992;23;20119;-90
2020/12/21 05:21:43;;;;;;;11.77;5.20;;;;;;;1.48;100.00;94125.72;6087886;23;20026;-89
2020/12/21 05:27:41;;;;;;;12.32;6.35;;;;;;;1.43;100.00;94101.59;6096663;23;20101;-90
2020/12/21 05:33:44;;;;;;;10.98;4.63;;;;;;;1.60;100.00;94129.75;6096740;23;20073;-89
2020/12/21 05:36:13;;;;;;;22.38;5.72;;;;;;;1.66;100.00;94131.75;6097399;23;20029;-90
2020/12/21 05:38:41;;;;;;;14.00;5.90;;;;;;;1.72;100.00;94132.97;6096933;23;20053;-90
2020/12/21 05:41:09;;;;;;;12.82;6.40;;;;;;;1.75;100.00;94122.53;6096271;23;20029;-90
2020/12/21 05:43:37;;;;;;;19.83;6.82;;;;;;;1.73;100.00;94130.28;6096570;23;20044;-89
2020/12/21 05:46:09;;;;;;;10.18;5.30;;;;;;;1.61;100.00;94121.22;6096148;23;20050;-89
2020/12/21 05:48:38;;;;;;;14.27;5.25;;;;;;;1.57;100.00;94130.81;6122636;23;20075;-89
2020/12/21 05:51:06;;;;;;;8.73;4.63;;;;;;;1.53;100.00;94126.91;6157346;23;20075;-89
2020/12/21 05:53:38;;;;;;;8.77;4.82;;;;;;;1.62;100.00;94127.88;6157011;23;20029;-90
2020/12/21 05:56:04;;;;;;;13.10;5.95;;;;;;;1.64;100.00;94130.28;6157178;23;20018;-89
2020/12/21 05:58:33;;;;;;;10.50;4.10;;;;;;;1.66;100.00;94131.75;6157656;23;20025;-90
2020/12/21 06:01:04;;;;;;;9.50;5.47;;;;;;;1.71;100.00;94141.50;6158204;23;20025;-89
2020/12/21 06:04:03;;;;;;;16.10;6.78;;;;;;;1.68;100.00;94127.38;6156987;23;20537;-90
2020/12/21 06:06:31;;;;;;;11.18;6.80;;;;;;;1.71;100.00;94139.75;6155748;23;20021;-89
2020/12/21 06:09:29;;;;;;;15.85;8.07;;;;;;;1.76;100.00;94134.28;6158631;23;20025;-90
2020/12/21 06:11:57;;;;;;;20.33;6.85;;;;;;;1.81;100.00;94137.22;6158039;23;20022;-90
2020/12/21 06:17:46;;;;;;;15.05;7.32;;;;;;;1.77;100.00;94117.34;6157284;23;20032;-90
2020/12/21 06:20:13;;;;;;;17.73;7.55;;;;;;;1.95;100.00;94145.38;6157087;23;20025;-90
2020/12/21 06:22:39;;;;;;;17.75;8.07;;;;;;;2.02;100.00;94130.41;6158029;23;20018;-89
2020/12/21 06:29:27;;;;;;;16.95;6.90;;;;;;;2.03;100.00;94134.56;6157119;23;20068;-90
2020/12/21 06:31:55;;;;;;;17.05;6.50;;;;;;;2.10;100.00;94131.38;6156929;23;20459;-90
2020/12/21 06:34:38;;;;;;;13.90;7.32;;;;;;;2.16;100.00;94122.41;6158375;23;20017;-90
2020/12/21 06:37:06;;;;;;;22.75;6.93;;;;;;;2.21;100.00;94127.88;6157273;23;20022;-90
2020/12/21 06:39:34;;;;;;;17.20;8.20;;;;;;;2.29;100.00;94136.53;6157057;23;20032;-90
2020/12/21 06:42:05;;;;;;;11.55;6.78;;;;;;;2.29;100.00;94131.47;6157256;23;20021;-90
2020/12/21 06:44:32;;;;;;;15.35;8.50;;;;;;;2.41;100.00;94143.09;6157878;23;20446;-90
2020/12/21 06:47:01;;;;;;;20.08;9.70;;;;;;;2.49;100.00;94138.13;6156811;23;20021;-90
2020/12/21 06:49:28;;;;;;;18.63;9.23;;;;;;;2.47;100.00;94139.19;6157358;23;20442;-90
2020/12/21 06:51:55;;;;;;;16.80;8.40;;;;;;;2.14;100.00;94142.03;6157720;23;20048;-90
2020/12/21 06:54:21;;;;;;;14.20;8.15;;;;;;;2.28;100.00;94140.81;6156759;23;20021;-90
2020/12/21 06:56:49;;;;;;;14.80;7.93;;;;;;;2.30;100.00;94136.41;6157097;23;20017;-90
2020/12/21 06:59:17;;;;;;;13.43;7.30;;;;;;;2.28;100.00;94143.34;6156575;23;20476;-90
2020/12/21 07:01:48;;;;;;;11.90;5.25;;;;;;;2.06;100.00;94136.81;6158790;23;20028;-90
2020/12/21 07:08:08;;;;;;;15.77;7.72;;;;;;;1.93;100.00;94137.91;6159272;23;20408;-90
2020/12/21 07:10:35;;;;;;;13.40;8.30;;;;;;;2.06;100.00;94144.44;6159915;23;20335;-90
2020/12/21 07:13:01;;;;;;;12.05;7.28;;;;;;;2.09;100.00;94132.28;6157426;23;20025;-90
2020/12/21 07:15:28;;;;;;;15.70;8.02;;;;;;;2.18;100.00;94145.88;6158709;23;20018;-90
2020/12/21 07:17:59;;;;;;;;;;;;;;;2.30;100.00;94143.22;6160880;23;20018;-90
2020/12/21 07:23:47;;;;;;;19.38;10.73;;;;;;;2.43;100.00;94153.06;6156725;23;20119;-90
2020/12/21 07:26:15;;;;;;;15.93;9.30;;;;;;;2.52;100.00;94152.25;6127454;23;20030;-90
2020/12/21 07:28:45;;;;;;;14.25;7.57;;;;;;;2.57;100.00;94150.13;6157498;23;20077;-89
2020/12/21 07:31:24;;;;;;;11.88;7.72;;;;;;;2.51;100.00;94131.16;6158356;23;20346;-90
2020/12/21 07:34:06;;;;;;;13.38;7.55;;;;;;;2.76;100.00;94158.59;6158237;23;20056;-90
2020/12/21 07:36:34;;;;;;;30.55;8.82;;;;;;;2.78;100.00;94171.97;6157449;23;20030;-90
2020/12/21 07:39:09;;;;;;;19.63;8.60;;;;;;;2.73;100.00;94164.75;6158329;23;20337;-90
2020/12/21 07:41:38;;;;;;;26.83;11.77;;;;;;;2.75;100.00;94167.97;6157538;23;20049;-90
2020/12/21 07:44:08;;;;;;;29.67;12.35;;;;;;;2.56;100.00;94156.13;6159436;23;20021;-90
2020/12/21 07:50:02;;;;;;;18.42;9.73;;;;;;;2.39;100.00;94160.97;6158159;23;20021;-90
2020/12/21 07:52:29;;;;;;;15.27;8.15;;;;;;;2.52;100.00;94158.16;6157351;23;20017;-90
2020/12/21 07:55:03;;;;;;;10.95;6.32;;;;;;;2.51;100.00;94148.91;6157484;23;20041;-90
2020/12/21 07:57:30;;;;;;;21.83;9.35;;;;;;;2.61;100.00;94163.31;6156775;23;20021;-90
2020/12/21 07:59:57;;;;;;;17.83;7.72;;;;;;;2.37;100.00;94165.34;6156157;23;20053;-90
2020/12/21 08:02:35;;;;;;;18.63;10.73;;;;;;;2.40;100.00;94169.34;6158620;23;20028;-90
2020/12/21 08:05:02;;;;;;;13.48;7.47;;;;;;;2.17;100.00;94149.34;6158095;23;20481;-90
2020/12/21 08:07:30;;;;;;;16.42;8.45;;;;;;;2.08;100.00;94163.63;6159225;23;20116;-90
2020/12/21 08:09:57;;;;;;;24.48;8.32;;;;;;;2.13;100.00;94164.03;6157447;23;20032;-90
2020/12/21 08:12:31;;;;;;;19.85;7.75;;;;;;;2.12;100.00;94132.03;6158756;23;20030;-90
2020/12/21 08:15:12;;;;;;;16.25;9.40;;;;;;;2.20;100.00;94181.25;6157755;23;20080;-90
2020/12/21 08:17:39;;;;;;;21.58;10.65;;;;;;;1.96;100.00;94170.59;6158298;23;20454;-90
2020/12/21 08:20:07;;;;;;;17.83;9.35;;;;;;;1.87;100.00;94156.94;6158492;23;20028;-90
2020/12/21 08:22:36;;;;;;;15.88;8.45;;;;;;;2.10;100.00;94161.78;6158871;23;20463;-90
2020/12/21 08:25:06;;;;;;;13.13;7.20;;;;;;;2.09;100.00;94169.50;6159988;23;20028;-90
2020/12/21 08:27:33;;;;;;;16.05;8.43;;;;;;;2.23;100.00;94174.16;6142023;23;20029;-89
2020/12/21 08:30:10;;;;;;;10.23;6.97;;;;;;;2.35;100.00;94158.81;6161018;23;20476;-90
2020/12/21 08:32:37;;;;;;;17.45;9.07;;;;;;;2.51;100.00;94161.59;6160977;23;20018;-90
2020/12/21 08:35:07;;;;;;;14.50;7.70;;;;;;;2.73;100.00;94159.69;6157451;23;20028;-91
2020/12/21 08:40:55;;;;;;;17.02;6.40;;;;;;;2.57;100.00;94155.19;6159057;23;20101;-89
2020/12/21 08:43:23;;;;;;;18.90;8.30;;;;;;;2.67;100.00;94155.97;6162469;23;20017;-88
2020/12/21 08:45:49;;;;;;;16.35;7.63;;;;;;;2.84;100.00;94157.91;6162302;23;20104;-88
2020/12/21 08:48:16;;;;;;;13.77;7.43;;;;;;;2.96;100.00;94154.25;6161403;23;20022;-89
2020/12/21 08:50:42;;;;;;;;;;;;;;;3.06;100.00;94144.88;6160182;23;20029;-88
2020/12/21 08:53:17;;;;;;;15.68;8.32;;;;;;;3.07;100.00;94143.16;6159760;23;19963;-89
2020/12/21 08:55:43;;;;;;;31.83;14.93;;;;;;;3.16;100.00;94147.38;6159314;23;20391;-88
2020/12/21 08:58:10;;;;;;;27.27;13.70;;;;;;;3.26;100.00;94136.38;6157465;23;20022;-89
2020/12/21 09:00:37;;;;;;;;;;;;;;;3.33;99.71;94138.22;6159287;23;20026;-88
2020/12/21 09:03:03;;;;;;;36.85;17.33;;;;;;;3.31;99.49;94136.75;6157793;23;19923;-88
2020/12/21 09:05:30;;;;;;;23.88;13.43;;;;;;;3.38;98.98;94140.31;6158785;23;20023;-88
2020/12/21 09:07:56;;;;;;;21.02;9.20;;;;;;;3.38;98.35;94139.53;6158013;23;20021;-88
2020/12/21 09:10:22;;;;;;;;;;;;;;;3.35;97.95;94133.00;6158507;23;20022;-88
2020/12/21 09:12:48;;;;;;;14.88;7.22;;;;;;;3.31;98.56;94134.22;6158082;23;19916;-88
2020/12/21 09:15:15;;;;;;;11.23;5.97;;;;;;;3.31;98.41;94136.75;6158369;23;20018;-88
2020/12/21 09:17:42;;;;;;;13.23;7.25;;;;;;;3.31;98.60;94129.13;6157953;23;20028;-88
2020/12/21 09:20:09;;;;;;;25.10;11.68;;;;;;;3.41;97.92;94134.16;6159271;23;20021;-88
2020/12/21 09:22:35;;;;;;;20.73;10.15;;;;;;;3.47;98.07;94138.66;6158525;23;20088;-89
2020/12/21 09:25:01;;;;;;;;;;;;;;;3.48;96.88;94140.28;6159699;23;20324;-89
2020/12/21 09:27:27;;;;;;;13.48;7.40;;;;;;;3.43;96.76;94135.63;6159462;23;20245;-88
2020/12/21 09:30:00;;;;;;;16.50;8.30;;;;;;;3.45;97.27;94138.84;6159702;23;20021;-88
2020/12/21 09:32:26;;;;;;;13.27;7.53;;;;;;;3.42;97.55;94121.31;6158528;23;20028;-89
2020/12/21 09:34:53;;;;;;;13.90;6.00;;;;;;;3.45;95.87;94135.47;6158508;23;20075;-89
2020/12/21 09:37:20;;;;;;;13.30;5.93;;;;;;;3.48;97.26;94127.59;6157220;23;20021;-88
2020/12/21 09:39:46;;;;;;;16.85;8.38;;;;;;;3.55;96.99;94130.34;6157533;23;20021;-88
2020/12/21 09:42:12;;;;;;;;;;;;;;;3.57;97.11;94116.53;6158767;23;20025;-89
2020/12/21 09:44:38;;;;;;;12.38;6.53;;;;;;;3.55;96.87;94122.72;6158071;23;19923;-89
2020/12/21 09:47:05;;;;;;;14.68;7.50;;;;;;;3.51;97.21;94124.75;6156646;23;20067;-89
2020/12/21 09:49:31;;;;;;;14.05;7.28;;;;;;;3.53;97.36;94127.16;6157359;23;20033;-89
2020/12/21 09:51:58;;;;;;;12.15;6.72;;;;;;;3.51;97.18;94126.50;6158130;23;20040;-89
2020/12/21 09:54:25;;;;;;;9.27;5.93;;;;;;;3.55;96.62;94122.72;6157281;23;20032;-89
2020/12/21 09:56:51;;;;;;;13.48;6.88;;;;;;;3.53;97.04;94119.53;6156837;23;20072;-90
2020/12/21 09:59:17;;;;;;;;;;;;;;;3.55;97.29;94127.78;6157194;23;20022;-89
2020/12/21 10:01:44;;;;;;;11.00;6.30;;;;;;;3.51;96.88;94118.88;6156842;23;19921;-89
2020/12/21 10:04:10;;;;;;;;;;;;;;;3.55;96.91;94115.09;6158020;23;20017;-89
2020/12/21 10:06:36;;;;;;;14.95;7.03;;;;;;;3.44;96.44;94100.88;6155994;23;20325;-89
2020/12/21 10:09:04;;;;;;;21.50;10.55;;;;;;;3.58;96.25;94112.28;6156688;23;20018;-90
2020/12/21 10:11:30;;;;;;;14.82;7.32;;;;;;;3.67;96.17;94108.06;6156782;23;20450;-90
2020/12/21 10:13:57;;;;;;;16.20;8.48;;;;;;;3.69;96.03;94111.25;6156190;23;20018;-89
2020/12/21 10:16:23;;;;;;;18.55;10.95;;;;;;;3.69;96.05;94098.56;6156433;23;20025;-89
2020/12/21 10:18:49;;;;;;;18.48;10.13;;;;;;;3.72;95.15;94098.28;6157115;23;20053;-89
2020/12/21 10:21:16;;;;;;;20.52;8.98;;;;;;;3.74;94.83;94092.09;6155684;23;20075;-90
2020/12/21 10:23:42;;;;;;;;;;;;;;;3.73;95.45;94093.06;6157533;23;20025;-89
2020/12/21 10:26:10;;;;;;;14.77;7.82;;;;;;;3.66;95.78;94081.84;6156262;23;19948;-89
2020/12/21 10:28:36;;;;;;;21.80;11.48;;;;;;;3.69;95.61;94083.31;6155889;23;20018;-90
2020/12/21 10:31:02;;;;;;;;;;;;;;;3.67;95.50;94086.00;6156502;23;20076;-89
2020/12/21 10:33:28;;;;;;;19.73;9.27;;;;;;;3.60;96.07;94085.78;6156701;23;19916;-89
2020/12/21 10:35:55;;;;;;;;;;;;;;;3.64;96.58;94088.84;6158562;23;20017;-89
2020/12/21 10:38:22;;;;;;;19.00;8.15;;;;;;;3.60;94.76;94083.25;6157224;23;19970;-89
2020/12/21 10:40:48;;;;;;;14.00;7.18;;;;;;;3.55;95.90;94071.91;6156324;23;20025;-89
2020/12/21 10:43:15;;;;;;;;;;;;;;;3.60;95.64;94070.53;6156717;23;20025;-89
2020/12/21 10:45:41;;;;;;;14.88;7.35;;;;;;;3.59;94.75;94065.59;6156526;23;19917;-89
2020/12/21 10:48:20;;;;;;;14.55;8.32;;;;;;;3.63;95.13;94068.66;6156725;23;20021;-89
2020/12/21 10:50:46;;;;;;;16.05;8.63;;;;;;;3.68;96.06;94067.28;6157024;23;20017;-90
2020/12/21 10:53:13;;;;;;;12.75;7.57;;;;;;;3.68;94.87;94064.75;6156861;23;20028;-89
2020/12/21 10:55:39;;;;;;;12.93;6.18;;;;;;;3.78;94.05;94072.28;6158113;23;20018;-89
2020/12/21 10:58:06;;;;;;;19.25;7.93;;;;;;;3.84;94.50;94070.91;6157327;23;20408;-89
2020/12/21 11:00:33;;;;;;;19.80;9.18;;;;;;;3.85;92.31;94077.59;6156422;23;20028;-88
2020/12/21 11:02:59;;;;;;;29.60;13.07;;;;;;;3.77;93.21;94080.03;6157360;23;20039;-89
2020/12/21 11:05:25;;;;;;;;;;;;;;;3.86;94.53;94076.63;6157414;23;20022;-89
2020/12/21 11:07:52;;;;;;;16.63;9.20;;;;;;;3.87;94.82;94083.31;6156854;23;19941;-89
2020/12/21 11:10:18;;;;;;;16.33;8.52;;;;;;;3.88;93.86;94079.81;6156915;23;20036;-89
2020/12/21 11:12:45;;;;;;;15.23;7.75;;;;;;;3.71;93.93;94054.25;6156732;23;20076;-89
2020/12/21 11:15:11;;;;;;;14.73;8.15;;;;;;;3.84;94.79;94076.00;6156430;23;20018;-89
2020/12/21 11:17:38;;;;;;;19.25;7.28;;;;;;;3.86;93.83;94074.09;6157116;23;20323;-89
2020/12/21 11:20:05;;;;;;;22.02;10.77;;;;;;;3.80;92.49;94087.38;6140717;23;20470;-88
2020/12/21 11:22:31;;;;;;;22.25;11.65;;;;;;;3.76;93.98;94086.06;6168395;23;20021;-89
2020/12/21 11:24:57;;;;;;;;;;;;;;;3.78;94.11;94084.16;6157086;23;20028;-88
2020/12/21 11:27:24;;;;;;;17.02;8.93;;;;;;;3.73;95.58;94079.53;6156780;23;19916;-89
2020/12/21 11:30:08;;;;;;;25.10;8.70;;;;;;;3.77;95.11;94082.59;6156871;23;20100;-90
2020/12/21 11:32:37;;;;;;;24.23;12.18;;;;;;;3.80;95.28;94077.22;6157426;23;20327;-90
2020/12/21 11:35:04;;;;;;;18.98;9.50;;;;;;;3.76;95.13;94070.81;6157460;23;20041;-88
2020/12/21 11:37:30;;;;;;;25.52;7.88;;;;;;;3.76;94.57;94064.00;6156680;23;20087;-90
2020/12/21 11:39:56;;;;;;;;;;;;;;;3.65;94.63;94057.41;6158200;23;20025;-90
2020/12/21 11:49:41;;;;;;;21.92;13.38;;;;;;;3.76;96.32;94032.72;6166428;23;20402;-88
2020/12/21 11:52:08;;;;;;;25.13;12.48;;;;;;;3.83;95.68;94037.06;6156117;23;20025;-88
2020/12/21 11:54:35;;;;;;;18.85;10.60;;;;;;;3.85;96.22;94031.84;6155197;23;20017;-88
2020/12/21 11:57:01;;;;;;;21.05;10.77;;;;;;;3.85;95.13;94039.47;6155190;23;20025;-90
2020/12/21 11:59:28;;;;;;;20.15;8.95;;;;;;;3.84;95.24;94038.66;6155171;23;20100;-88
2020/12/21 12:01:59;;;;;;;19.73;9.70;;;;;;;3.87;93.74;94056.16;6155798;23;20032;-89
2020/12/21 12:04:26;;;;;;;20.63;9.70;;;;;;;3.93;95.03;94052.22;6155118;23;20025;-89
2020/12/21 12:06:53;;;;;;;17.58;9.38;;;;;;;3.97;94.44;94060.34;6155467;23;20472;-88
2020/12/21 12:09:21;;;;;;;18.85;9.98;;;;;;;4.01;94.08;94061.66;6155447;23;20064;-88
2020/12/21 12:11:48;;;;;;;15.85;7.70;;;;;;;4.03;93.92;94058.97;6154860;23;20057;-88
2020/12/21 12:14:15;;;;;;;17.70;9.45;;;;;;;4.01;93.62;94059.09;6155221;23;20053;-91
2020/12/21 12:16:41;;;;;;;16.48;9.60;;;;;;;4.01;92.83;94044.66;6156246;23;20056;-88
2020/12/21 12:19:07;;;;;;;;;;;;;;;4.00;92.38;94040.53;6154551;23;20470;-88
2020/12/21 12:21:33;;;;;;;16.83;8.57;;;;;;;3.95;92.88;94047.00;6154802;23;19920;-88
2020/12/21 12:23:59;;;;;;;;;;;;;;;3.88;92.53;94052.66;6155368;23;20025;-89
2020/12/21 12:26:27;;;;;;;14.82;9.52;;;;;;;3.84;94.48;94046.28;6155023;23;19917;-88
2020/12/21 12:28:56;;;;;;;20.13;9.40;;;;;;;3.84;94.88;94040.41;6155693;23;20335;-90
2020/12/21 12:31:23;;;;;;;19.33;8.57;;;;;;;3.78;94.50;94036.69;6157310;23;20022;-90
2020/12/21 12:33:51;;;;;;;16.98;8.68;;;;;;;3.69;94.18;94032.50;6156052;23;20021;-90